sensor_id;sensor_type;location;lat;lon;timestamp;temperature;humidity
21318;DHT22;10818;50.830;6.524;2024-01-25T00:02:01;10.30;99.90
21318;DHT22;10818;50.830;6.524;2024-01-25T00:07:03;10.20;99.90
21318;DHT22;10818;50.830;6.524;2024-01-25T00:12:04;10.10;99.90
21318;DHT22;10818;50.830;6.524;2024-01-25T00:17:04;10.20;99.90
21318;DHT22;10818;50.830;6.524;2024-01-25T00:22:05;10.10;99.90
21318;DHT22;10818;50.830;6.524;2024-01-25T00:27:05;10.10;99.90
21318;DHT22;10818;50.830;6.524;2024-01-25T00:32:06;10.10;99.90
21318;DHT22;10818;50.830;6.524;2024-01-25T00:37:06;10.10;99.90
21318;DHT22;10818;50.830;6.524;2024-01-25T00:42:07;10.00;99.90
21318;DHT22;10818;50.830;6.524;2024-01-25T00:47:08;10.00;99.90
21318;DHT22;10818;50.830;6.524;2024-01-25T00:52:09;10.00;99.90
21318;DHT22;10818;50.830;6.524;2024-01-25T00:57:09;9.90;99.90
21318;DHT22;10818;50.830;6.524;2024-01-25T01:02:10;10.00;99.90
21318;DHT22;10818;50.830;6.524;2024-01-25T01:07:12;10.00;99.90
21318;DHT22;10818;50.830;6.524;2024-01-25T01:12:12;9.90;99.90
21318;DHT22;10818;50.830;6.524;2024-01-25T01:17:14;9.80;99.90
21318;DHT22;10818;50.830;6.524;2024-01-25T01:22:15;9.80;99.90
21318;DHT22;10818;50.830;6.524;2024-01-25T01:27:15;9.60;99.90
21318;DHT22;10818;50.830;6.524;2024-01-25T01:32:16;9.50;99.90
21318;DHT22;10818;50.830;6.524;2024-01-25T01:37:16;9.50;99.90
21318;DHT22;10818;50.830;6.524;2024-01-25T01:42:17;9.30;99.90
21318;DHT22;10818;50.830;6.524;2024-01-25T01:47:17;9.30;99.90
21318;DHT22;10818;50.830;6.524;2024-01-25T01:52:18;9.20;99.90
21318;DHT22;10818;50.830;6.524;2024-01-25T01:57:18;9.10;99.90
21318;DHT22;10818;50.830;6.524;2024-01-25T02:02:19;9.10;99.90
21318;DHT22;10818;50.830;6.524;2024-01-25T02:07:19;9.30;99.90
21318;DHT22;10818;50.830;6.524;2024-01-25T02:12:20;9.20;99.90
21318;DHT22;10818;50.830;6.524;2024-01-25T02:17:20;9.20;99.90
21318;DHT22;10818;50.830;6.524;2024-01-25T02:22:21;9.10;99.90
21318;DHT22;10818;50.830;6.524;2024-01-25T02:27:21;9.00;99.90
21318;DHT22;10818;50.830;6.524;2024-01-25T02:32:22;8.90;99.90
21318;DHT22;10818;50.830;6.524;2024-01-25T02:37:22;8.90;99.90
21318;DHT22;10818;50.830;6.524;2024-01-25T02:42:23;8.80;99.90
21318;DHT22;10818;50.830;6.524;2024-01-25T02:47:23;8.90;99.90
21318;DHT22;10818;50.830;6.524;2024-01-25T02:52:24;8.80;99.90
21318;DHT22;10818;50.830;6.524;2024-01-25T02:57:24;8.70;99.90
21318;DHT22;10818;50.830;6.524;2024-01-25T03:02:25;8.70;99.90
21318;DHT22;10818;50.830;6.524;2024-01-25T03:07:26;8.60;99.90
21318;DHT22;10818;50.830;6.524;2024-01-25T03:12:26;8.70;99.90
21318;DHT22;10818;50.830;6.524;2024-01-25T03:17:26;8.60;99.90
21318;DHT22;10818;50.830;6.524;2024-01-25T03:22:27;8.60;99.90
21318;DHT22;10818;50.830;6.524;2024-01-25T03:27:27;8.70;99.90
21318;DHT22;10818;50.830;6.524;2024-01-25T03:32:28;8.80;99.90
21318;DHT22;10818;50.830;6.524;2024-01-25T03:37:28;9.00;99.90
21318;DHT22;10818;50.830;6.524;2024-01-25T03:42:29;9.10;99.90
21318;DHT22;10818;50.830;6.524;2024-01-25T03:47:29;9.20;99.90
21318;DHT22;10818;50.830;6.524;2024-01-25T03:52:29;9.10;99.90
21318;DHT22;10818;50.830;6.524;2024-01-25T03:57:30;9.20;99.90
21318;DHT22;10818;50.830;6.524;2024-01-25T04:02:31;9.20;99.90
21318;DHT22;10818;50.830;6.524;2024-01-25T04:07:31;9.00;99.90
21318;DHT22;10818;50.830;6.524;2024-01-25T04:12:31;8.80;99.90
21318;DHT22;10818;50.830;6.524;2024-01-25T04:17:33;8.60;99.90
21318;DHT22;10818;50.830;6.524;2024-01-25T04:22:35;8.40;99.90
21318;DHT22;10818;50.830;6.524;2024-01-25T04:27:36;8.30;99.90
21318;DHT22;10818;50.830;6.524;2024-01-25T04:32:37;8.20;99.90
21318;DHT22;10818;50.830;6.524;2024-01-25T04:37:37;8.00;99.90
21318;DHT22;10818;50.830;6.524;2024-01-25T04:42:38;7.90;99.90
21318;DHT22;10818;50.830;6.524;2024-01-25T04:47:38;7.80;99.90
21318;DHT22;10818;50.830;6.524;2024-01-25T04:52:40;7.80;99.90
21318;DHT22;10818;50.830;6.524;2024-01-25T04:57:40;7.70;99.90
21318;DHT22;10818;50.830;6.524;2024-01-25T05:02:41;7.50;99.90
21318;DHT22;10818;50.830;6.524;2024-01-25T05:07:41;7.30;99.90
21318;DHT22;10818;50.830;6.524;2024-01-25T05:12:41;7.00;99.90
21318;DHT22;10818;50.830;6.524;2024-01-25T05:17:42;6.80;99.90
21318;DHT22;10818;50.830;6.524;2024-01-25T05:22:43;6.60;99.90
21318;DHT22;10818;50.830;6.524;2024-01-25T05:27:43;6.50;99.90
21318;DHT22;10818;50.830;6.524;2024-01-25T05:32:43;6.40;99.90
21318;DHT22;10818;50.830;6.524;2024-01-25T05:37:44;6.40;99.90
21318;DHT22;10818;50.830;6.524;2024-01-25T05:42:44;6.40;99.90
21318;DHT22;10818;50.830;6.524;2024-01-25T05:47:45;6.30;99.90
21318;DHT22;10818;50.830;6.524;2024-01-25T05:52:45;6.00;99.90
21318;DHT22;10818;50.830;6.524;2024-01-25T05:57:46;5.90;99.90
21318;DHT22;10818;50.830;6.524;2024-01-25T06:02:46;5.80;99.90
21318;DHT22;10818;50.830;6.524;2024-01-25T06:07:47;5.80;99.90
21318;DHT22;10818;50.830;6.524;2024-01-25T06:12:49;5.50;99.90
21318;DHT22;10818;50.830;6.524;2024-01-25T06:17:50;5.40;99.90
21318;DHT22;10818;50.830;6.524;2024-01-25T06:22:50;5.30;99.90
21318;DHT22;10818;50.830;6.524;2024-01-25T06:27:51;5.50;99.90
21318;DHT22;10818;50.830;6.524;2024-01-25T06:32:51;5.60;99.90
21318;DHT22;10818;50.830;6.524;2024-01-25T06:37:52;5.70;99.90
21318;DHT22;10818;50.830;6.524;2024-01-25T06:42:52;5.50;99.90
21318;DHT22;10818;50.830;6.524;2024-01-25T06:47:52;5.40;99.90
21318;DHT22;10818;50.830;6.524;2024-01-25T06:52:53;5.50;99.90
21318;DHT22;10818;50.830;6.524;2024-01-25T06:57:55;5.20;99.90
21318;DHT22;10818;50.830;6.524;2024-01-25T07:02:55;5.00;99.90
21318;DHT22;10818;50.830;6.524;2024-01-25T07:07:55;5.00;99.90
21318;DHT22;10818;50.830;6.524;2024-01-25T07:12:56;4.90;99.90
21318;DHT22;10818;50.830;6.524;2024-01-25T07:17:56;4.90;99.90
21318;DHT22;10818;50.830;6.524;2024-01-25T07:22:57;4.90;99.90
21318;DHT22;10818;50.830;6.524;2024-01-25T07:27:57;4.90;99.90
21318;DHT22;10818;50.830;6.524;2024-01-25T07:32:58;4.90;99.90
21318;DHT22;10818;50.830;6.524;2024-01-25T07:37:58;4.80;99.90
21318;DHT22;10818;50.830;6.524;2024-01-25T07:42:59;5.00;99.90
21318;DHT22;10818;50.830;6.524;2024-01-25T07:47:59;5.00;99.90
21318;DHT22;10818;50.830;6.524;2024-01-25T07:53:00;5.10;99.90
21318;DHT22;10818;50.830;6.524;2024-01-25T07:58:02;5.30;99.90
21318;DHT22;10818;50.830;6.524;2024-01-25T08:03:03;5.90;99.90
21318;DHT22;10818;50.830;6.524;2024-01-25T08:08:03;6.40;99.90
21318;DHT22;10818;50.830;6.524;2024-01-25T08:13:04;6.80;99.90
21318;DHT22;10818;50.830;6.524;2024-01-25T08:18:04;7.20;99.90
21318;DHT22;10818;50.830;6.524;2024-01-25T08:23:05;8.00;99.90
21318;DHT22;10818;50.830;6.524;2024-01-25T08:28:08;10.00;99.90
21318;DHT22;10818;50.830;6.524;2024-01-25T08:33:08;12.00;99.90
21318;DHT22;10818;50.830;6.524;2024-01-25T08:38:08;13.70;99.90
21318;DHT22;10818;50.830;6.524;2024-01-25T08:43:09;14.30;99.90
21318;DHT22;10818;50.830;6.524;2024-01-25T08:48:09;14.10;99.90
21318;DHT22;10818;50.830;6.524;2024-01-25T08:53:10;14.60;99.90
21318;DHT22;10818;50.830;6.524;2024-01-25T08:58:11;15.70;99.90
21318;DHT22;10818;50.830;6.524;2024-01-25T09:03:11;16.10;99.90
21318;DHT22;10818;50.830;6.524;2024-01-25T09:08:12;16.60;99.90
21318;DHT22;10818;50.830;6.524;2024-01-25T09:13:13;16.60;99.90
21318;DHT22;10818;50.830;6.524;2024-01-25T09:18:14;16.20;99.90
21318;DHT22;10818;50.830;6.524;2024-01-25T09:23:14;16.40;99.90
21318;DHT22;10818;50.830;6.524;2024-01-25T09:28:16;16.30;99.90
21318;DHT22;10818;50.830;6.524;2024-01-25T09:33:17;16.10;99.90
21318;DHT22;10818;50.830;6.524;2024-01-25T09:38:18;15.80;99.90
21318;DHT22;10818;50.830;6.524;2024-01-25T09:43:18;14.70;99.90
21318;DHT22;10818;50.830;6.524;2024-01-25T09:48:20;14.10;99.90
21318;DHT22;10818;50.830;6.524;2024-01-25T09:53:21;13.50;99.90
21318;DHT22;10818;50.830;6.524;2024-01-25T09:58:22;12.90;99.90
21318;DHT22;10818;50.830;6.524;2024-01-25T10:03:23;12.50;99.90
21318;DHT22;10818;50.830;6.524;2024-01-25T10:08:24;12.70;99.90
21318;DHT22;10818;50.830;6.524;2024-01-25T10:13:25;12.70;99.90
21318;DHT22;10818;50.830;6.524;2024-01-25T10:18:26;12.80;99.90
21318;DHT22;10818;50.830;6.524;2024-01-25T10:23:27;12.70;99.90
21318;DHT22;10818;50.830;6.524;2024-01-25T10:28:28;12.60;99.90
21318;DHT22;10818;50.830;6.524;2024-01-25T10:33:30;12.70;99.90
21318;DHT22;10818;50.830;6.524;2024-01-25T10:38:32;12.70;99.90
21318;DHT22;10818;50.830;6.524;2024-01-25T10:43:33;12.60;99.90
21318;DHT22;10818;50.830;6.524;2024-01-25T10:48:33;12.70;99.90
21318;DHT22;10818;50.830;6.524;2024-01-25T10:53:34;12.50;99.90
21318;DHT22;10818;50.830;6.524;2024-01-25T10:58:35;12.60;99.90
21318;DHT22;10818;50.830;6.524;2024-01-25T11:03:36;12.70;99.90
21318;DHT22;10818;50.830;6.524;2024-01-25T11:08:37;12.70;99.90
21318;DHT22;10818;50.830;6.524;2024-01-25T11:13:39;12.90;99.90
21318;DHT22;10818;50.830;6.524;2024-01-25T11:18:54;12.90;99.90
21318;DHT22;10818;50.830;6.524;2024-01-25T11:24:01;13.10;99.90
21318;DHT22;10818;50.830;6.524;2024-01-25T11:29:02;13.20;99.90
21318;DHT22;10818;50.830;6.524;2024-01-25T11:34:02;13.10;99.90
21318;DHT22;10818;50.830;6.524;2024-01-25T11:39:03;13.20;99.90
21318;DHT22;10818;50.830;6.524;2024-01-25T11:44:04;13.50;99.90
21318;DHT22;10818;50.830;6.524;2024-01-25T11:49:04;13.60;99.90
21318;DHT22;10818;50.830;6.524;2024-01-25T11:54:05;13.70;99.90
21318;DHT22;10818;50.830;6.524;2024-01-25T11:59:07;13.80;99.90
21318;DHT22;10818;50.830;6.524;2024-01-25T12:04:08;13.40;99.90
21318;DHT22;10818;50.830;6.524;2024-01-25T12:09:09;13.40;99.90
21318;DHT22;10818;50.830;6.524;2024-01-25T12:14:10;13.60;99.90
21318;DHT22;10818;50.830;6.524;2024-01-25T12:19:10;13.50;99.90
21318;DHT22;10818;50.830;6.524;2024-01-25T12:24:11;13.50;99.90
21318;DHT22;10818;50.830;6.524;2024-01-25T12:29:12;13.60;99.90
21318;DHT22;10818;50.830;6.524;2024-01-25T12:34:13;13.50;99.90
21318;DHT22;10818;50.830;6.524;2024-01-25T12:39:15;13.30;99.90
21318;DHT22;10818;50.830;6.524;2024-01-25T12:44:16;13.40;99.90
21318;DHT22;10818;50.830;6.524;2024-01-25T12:49:17;13.30;99.90
21318;DHT22;10818;50.830;6.524;2024-01-25T12:54:17;13.50;99.90
21318;DHT22;10818;50.830;6.524;2024-01-25T12:59:18;13.50;99.90
21318;DHT22;10818;50.830;6.524;2024-01-25T13:04:18;13.70;99.90
21318;DHT22;10818;50.830;6.524;2024-01-25T13:09:21;13.70;99.90
21318;DHT22;10818;50.830;6.524;2024-01-25T13:14:22;13.60;99.90
21318;DHT22;10818;50.830;6.524;2024-01-25T13:19:22;13.50;99.90
21318;DHT22;10818;50.830;6.524;2024-01-25T13:24:23;13.50;99.90
21318;DHT22;10818;50.830;6.524;2024-01-25T13:29:23;13.60;99.90
21318;DHT22;10818;50.830;6.524;2024-01-25T13:34:24;13.70;99.90
21318;DHT22;10818;50.830;6.524;2024-01-25T13:39:24;13.40;99.90
21318;DHT22;10818;50.830;6.524;2024-01-25T13:44:26;13.40;99.90
21318;DHT22;10818;50.830;6.524;2024-01-25T13:49:26;13.50;99.90
21318;DHT22;10818;50.830;6.524;2024-01-25T13:54:26;13.20;99.90
21318;DHT22;10818;50.830;6.524;2024-01-25T13:59:27;13.10;99.90
21318;DHT22;10818;50.830;6.524;2024-01-25T14:04:27;13.00;99.90
21318;DHT22;10818;50.830;6.524;2024-01-25T14:09:28;13.20;99.90
21318;DHT22;10818;50.830;6.524;2024-01-25T14:14:29;13.20;99.90
21318;DHT22;10818;50.830;6.524;2024-01-25T14:19:30;13.20;99.90
21318;DHT22;10818;50.830;6.524;2024-01-25T14:24:30;13.00;99.90
21318;DHT22;10818;50.830;6.524;2024-01-25T14:29:31;13.00;99.90
21318;DHT22;10818;50.830;6.524;2024-01-25T14:34:33;13.00;99.90
21318;DHT22;10818;50.830;6.524;2024-01-25T14:39:36;13.10;99.90
21318;DHT22;10818;50.830;6.524;2024-01-25T14:44:36;12.80;99.90
21318;DHT22;10818;50.830;6.524;2024-01-25T14:49:37;13.10;99.90
21318;DHT22;10818;50.830;6.524;2024-01-25T14:54:38;12.90;99.90
21318;DHT22;10818;50.830;6.524;2024-01-25T14:59:38;12.80;99.90
21318;DHT22;10818;50.830;6.524;2024-01-25T15:04:39;12.80;99.90
21318;DHT22;10818;50.830;6.524;2024-01-25T15:09:39;12.70;99.90
21318;DHT22;10818;50.830;6.524;2024-01-25T15:14:40;12.60;99.90
21318;DHT22;10818;50.830;6.524;2024-01-25T15:19:41;12.50;99.90
21318;DHT22;10818;50.830;6.524;2024-01-25T15:24:41;12.50;99.90
21318;DHT22;10818;50.830;6.524;2024-01-25T15:29:42;12.50;99.90
21318;DHT22;10818;50.830;6.524;2024-01-25T15:34:42;12.30;99.90
21318;DHT22;10818;50.830;6.524;2024-01-25T15:39:42;12.30;99.90
21318;DHT22;10818;50.830;6.524;2024-01-25T15:44:44;12.30;99.90
21318;DHT22;10818;50.830;6.524;2024-01-25T15:49:45;12.10;99.90
21318;DHT22;10818;50.830;6.524;2024-01-25T15:54:45;12.10;99.90
21318;DHT22;10818;50.830;6.524;2024-01-25T15:59:46;12.10;99.90
21318;DHT22;10818;50.830;6.524;2024-01-25T16:04:48;12.20;99.90
21318;DHT22;10818;50.830;6.524;2024-01-25T16:09:48;12.10;99.90
21318;DHT22;10818;50.830;6.524;2024-01-25T16:14:49;11.80;99.90
21318;DHT22;10818;50.830;6.524;2024-01-25T16:19:51;11.60;99.90
21318;DHT22;10818;50.830;6.524;2024-01-25T16:24:51;11.50;99.90
21318;DHT22;10818;50.830;6.524;2024-01-25T16:29:52;11.60;99.90
21318;DHT22;10818;50.830;6.524;2024-01-25T16:34:52;11.60;99.90
21318;DHT22;10818;50.830;6.524;2024-01-25T16:39:53;11.70;99.90
21318;DHT22;10818;50.830;6.524;2024-01-25T16:44:53;11.60;99.90
21318;DHT22;10818;50.830;6.524;2024-01-25T16:49:53;11.30;99.90
21318;DHT22;10818;50.830;6.524;2024-01-25T16:54:54;11.20;99.90
21318;DHT22;10818;50.830;6.524;2024-01-25T16:59:55;11.00;99.90
21318;DHT22;10818;50.830;6.524;2024-01-25T17:04:55;11.00;99.90
21318;DHT22;10818;50.830;6.524;2024-01-25T17:09:56;10.90;99.90
21318;DHT22;10818;50.830;6.524;2024-01-25T17:14:56;11.00;99.90
21318;DHT22;10818;50.830;6.524;2024-01-25T17:19:56;11.00;99.90
21318;DHT22;10818;50.830;6.524;2024-01-25T17:24:57;10.90;99.90
21318;DHT22;10818;50.830;6.524;2024-01-25T17:29:57;10.60;99.90
21318;DHT22;10818;50.830;6.524;2024-01-25T17:34:58;10.70;99.90
21318;DHT22;10818;50.830;6.524;2024-01-25T17:39:59;11.10;99.90
21318;DHT22;10818;50.830;6.524;2024-01-25T17:44:59;11.00;99.90
21318;DHT22;10818;50.830;6.524;2024-01-25T17:50:00;10.80;99.90
21318;DHT22;10818;50.830;6.524;2024-01-25T17:55:00;10.70;99.90
21318;DHT22;10818;50.830;6.524;2024-01-25T18:00:01;10.60;99.90
21318;DHT22;10818;50.830;6.524;2024-01-25T18:05:01;10.60;99.90
21318;DHT22;10818;50.830;6.524;2024-01-25T18:10:02;10.70;99.90
21318;DHT22;10818;50.830;6.524;2024-01-25T18:15:03;10.80;99.90
21318;DHT22;10818;50.830;6.524;2024-01-25T18:20:03;10.70;99.90
21318;DHT22;10818;50.830;6.524;2024-01-25T18:25:04;10.80;99.90
21318;DHT22;10818;50.830;6.524;2024-01-25T18:30:05;10.80;99.90
21318;DHT22;10818;50.830;6.524;2024-01-25T18:35:05;10.80;99.90
21318;DHT22;10818;50.830;6.524;2024-01-25T18:40:06;11.00;99.90
21318;DHT22;10818;50.830;6.524;2024-01-25T18:45:08;11.10;99.90
21318;DHT22;10818;50.830;6.524;2024-01-25T18:50:08;11.10;99.90
21318;DHT22;10818;50.830;6.524;2024-01-25T18:55:09;11.20;99.90
21318;DHT22;10818;50.830;6.524;2024-01-25T19:00:11;11.10;99.90
21318;DHT22;10818;50.830;6.524;2024-01-25T19:05:12;11.20;99.90
21318;DHT22;10818;50.830;6.524;2024-01-25T19:10:13;11.30;99.90
21318;DHT22;10818;50.830;6.524;2024-01-25T19:15:13;11.30;99.90
21318;DHT22;10818;50.830;6.524;2024-01-25T19:20:15;11.30;99.90
21318;DHT22;10818;50.830;6.524;2024-01-25T19:25:15;11.40;99.90
21318;DHT22;10818;50.830;6.524;2024-01-25T19:30:16;11.30;99.90
21318;DHT22;10818;50.830;6.524;2024-01-25T19:35:17;11.30;99.90
21318;DHT22;10818;50.830;6.524;2024-01-25T19:40:19;11.40;99.90
21318;DHT22;10818;50.830;6.524;2024-01-25T19:45:19;11.30;99.90
21318;DHT22;10818;50.830;6.524;2024-01-25T19:50:20;11.30;99.90
21318;DHT22;10818;50.830;6.524;2024-01-25T19:55:20;11.30;99.90
21318;DHT22;10818;50.830;6.524;2024-01-25T20:00:21;11.30;99.90
21318;DHT22;10818;50.830;6.524;2024-01-25T20:05:22;11.30;99.90
21318;DHT22;10818;50.830;6.524;2024-01-25T20:10:22;11.10;99.90
21318;DHT22;10818;50.830;6.524;2024-01-25T20:15:23;11.20;99.90
21318;DHT22;10818;50.830;6.524;2024-01-25T20:20:23;11.10;99.90
21318;DHT22;10818;50.830;6.524;2024-01-25T20:25:24;11.20;99.90
21318;DHT22;10818;50.830;6.524;2024-01-25T20:30:25;11.10;99.90
21318;DHT22;10818;50.830;6.524;2024-01-25T20:35:28;11.20;99.90
21318;DHT22;10818;50.830;6.524;2024-01-25T20:40:29;11.20;99.90
21318;DHT22;10818;50.830;6.524;2024-01-25T20:45:31;11.30;99.90
21318;DHT22;10818;50.830;6.524;2024-01-25T20:50:32;11.40;99.90
21318;DHT22;10818;50.830;6.524;2024-01-25T20:55:32;11.40;99.90
21318;DHT22;10818;50.830;6.524;2024-01-25T21:00:33;11.30;99.90
21318;DHT22;10818;50.830;6.524;2024-01-25T21:05:34;11.30;99.90
21318;DHT22;10818;50.830;6.524;2024-01-25T21:10:34;11.50;99.90
21318;DHT22;10818;50.830;6.524;2024-01-25T21:15:35;11.60;99.90
21318;DHT22;10818;50.830;6.524;2024-01-25T21:20:35;11.50;99.90
21318;DHT22;10818;50.830;6.524;2024-01-25T21:25:36;11.50;99.90
21318;DHT22;10818;50.830;6.524;2024-01-25T21:30:36;11.60;99.90
21318;DHT22;10818;50.830;6.524;2024-01-25T21:35:37;11.70;99.90
21318;DHT22;10818;50.830;6.524;2024-01-25T21:40:37;11.70;99.90
21318;DHT22;10818;50.830;6.524;2024-01-25T21:45:38;11.80;99.90
21318;DHT22;10818;50.830;6.524;2024-01-25T21:50:38;11.70;99.90
21318;DHT22;10818;50.830;6.524;2024-01-25T21:55:39;11.70;99.90
21318;DHT22;10818;50.830;6.524;2024-01-25T22:00:41;11.70;99.90
21318;DHT22;10818;50.830;6.524;2024-01-25T22:05:42;11.60;99.90
21318;DHT22;10818;50.830;6.524;2024-01-25T22:10:42;11.70;99.90
21318;DHT22;10818;50.830;6.524;2024-01-25T22:15:43;11.70;99.90
21318;DHT22;10818;50.830;6.524;2024-01-25T22:20:43;11.70;99.90
21318;DHT22;10818;50.830;6.524;2024-01-25T22:25:44;11.90;99.90
21318;DHT22;10818;50.830;6.524;2024-01-25T22:30:44;11.80;99.90
21318;DHT22;10818;50.830;6.524;2024-01-25T22:35:45;11.80;99.90
21318;DHT22;10818;50.830;6.524;2024-01-25T22:40:45;12.00;99.90
21318;DHT22;10818;50.830;6.524;2024-01-25T22:45:46;11.80;99.90
21318;DHT22;10818;50.830;6.524;2024-01-25T22:50:46;11.80;99.90
21318;DHT22;10818;50.830;6.524;2024-01-25T22:55:47;11.80;99.90
21318;DHT22;10818;50.830;6.524;2024-01-25T23:00:47;11.90;99.90
21318;DHT22;10818;50.830;6.524;2024-01-25T23:05:48;11.80;99.90
21318;DHT22;10818;50.830;6.524;2024-01-25T23:10:48;11.80;99.90
21318;DHT22;10818;50.830;6.524;2024-01-25T23:15:49;11.70;99.90
21318;DHT22;10818;50.830;6.524;2024-01-25T23:20:50;11.70;99.90
21318;DHT22;10818;50.830;6.524;2024-01-25T23:25:50;11.80;99.90
21318;DHT22;10818;50.830;6.524;2024-01-25T23:30:51;11.70;99.90
21318;DHT22;10818;50.830;6.524;2024-01-25T23:35:51;11.70;99.90
21318;DHT22;10818;50.830;6.524;2024-01-25T23:40:51;11.90;99.90
21318;DHT22;10818;50.830;6.524;2024-01-25T23:45:52;11.80;99.90
21318;DHT22;10818;50.830;6.524;2024-01-25T23:50:53;11.90;99.90
21318;DHT22;10818;50.830;6.524;2024-01-25T23:55:53;12.10;99.90
